Terminal Aerodrome Forecast
Issued by NWS

Home | Current Version | Previous Version | Text Only | Print | Product List | Glossary On
Versions: 1 2 3 4 5 6 7 8 9 10 11 12 13 14 15 16 17 18 19
000
FTAK31 PAJN 271700
TAFAGY
TAF
PAGY 271736Z 2718/2818 21011KT P6SM BKN015 OVC060
     FM272200 21014G22KT P6SM FEW030 BKN080
     FM280400 21010KT P6SM BKN060
     FM281200 21010KT P6SM BKN050 OVC080 PROB30 2814/2818 -RA
      AMD LTD TO CLD VIS AND WIND=

USA.gov is the U.S. government's official web portal to all federal, state and local government web resources and services.